sensor_id;sensor_type;location;lat;lon;timestamp;P1;durP1;ratioP1;P2;durP2;ratioP2
55993;SDS011;67425;52.126;20.638;2023-06-04T00:01:56;10.02;;;5.95;;
55993;SDS011;67425;52.126;20.638;2023-06-04T00:04:21;12.93;;;6.68;;
55993;SDS011;67425;52.126;20.638;2023-06-04T00:06:48;9.73;;;5.68;;
55993;SDS011;67425;52.126;20.638;2023-06-04T00:09:14;14.52;;;5.53;;
55993;SDS011;67425;52.126;20.638;2023-06-04T00:11:39;7.78;;;5.38;;
55993;SDS011;67425;52.126;20.638;2023-06-04T00:14:04;16.92;;;5.72;;
55993;SDS011;67425;52.126;20.638;2023-06-04T00:16:30;18.13;;;5.32;;
55993;SDS011;67425;52.126;20.638;2023-06-04T00:18:55;7.63;;;5.47;;
55993;SDS011;67425;52.126;20.638;2023-06-04T00:21:21;10.18;;;5.50;;
55993;SDS011;67425;52.126;20.638;2023-06-04T00:23:46;11.10;;;5.30;;
55993;SDS011;67425;52.126;20.638;2023-06-04T00:26:11;7.60;;;4.97;;
55993;SDS011;67425;52.126;20.638;2023-06-04T00:28:37;14.38;;;5.20;;
55993;SDS011;67425;52.126;20.638;2023-06-04T00:31:04;16.63;;;5.78;;
55993;SDS011;67425;52.126;20.638;2023-06-04T00:33:30;10.50;;;4.95;;
55993;SDS011;67425;52.126;20.638;2023-06-04T00:35:56;13.05;;;4.55;;
55993;SDS011;67425;52.126;20.638;2023-06-04T00:38:21;19.17;;;5.60;;
55993;SDS011;67425;52.126;20.638;2023-06-04T00:40:47;8.00;;;4.63;;
55993;SDS011;67425;52.126;20.638;2023-06-04T00:43:12;9.70;;;5.15;;
55993;SDS011;67425;52.126;20.638;2023-06-04T00:45:38;8.55;;;4.43;;
55993;SDS011;67425;52.126;20.638;2023-06-04T00:48:04;9.93;;;6.15;;
55993;SDS011;67425;52.126;20.638;2023-06-04T00:50:30;11.68;;;4.63;;
55993;SDS011;67425;52.126;20.638;2023-06-04T00:52:58;12.15;;;5.22;;
55993;SDS011;67425;52.126;20.638;2023-06-04T00:55:23;9.90;;;4.70;;
55993;SDS011;67425;52.126;20.638;2023-06-04T00:57:49;8.95;;;4.93;;
55993;SDS011;67425;52.126;20.638;2023-06-04T01:00:15;11.27;;;5.07;;
55993;SDS011;67425;52.126;20.638;2023-06-04T01:02:41;11.30;;;4.70;;
55993;SDS011;67425;52.126;20.638;2023-06-04T01:05:26;5.75;;;4.25;;
55993;SDS011;67425;52.126;20.638;2023-06-04T01:07:59;5.97;;;3.78;;
55993;SDS011;67425;52.126;20.638;2023-06-04T01:10:24;6.63;;;4.20;;
55993;SDS011;67425;52.126;20.638;2023-06-04T01:12:49;6.68;;;4.65;;
55993;SDS011;67425;52.126;20.638;2023-06-04T01:15:15;11.23;;;3.90;;
55993;SDS011;67425;52.126;20.638;2023-06-04T01:17:41;6.40;;;4.22;;
55993;SDS011;67425;52.126;20.638;2023-06-04T01:20:19;14.00;;;4.25;;
55993;SDS011;67425;52.126;20.638;2023-06-04T01:25:59;7.63;;;4.55;;
55993;SDS011;67425;52.126;20.638;2023-06-04T01:28:29;4.43;;;3.78;;
55993;SDS011;67425;52.126;20.638;2023-06-04T01:30:55;8.77;;;4.35;;
55993;SDS011;67425;52.126;20.638;2023-06-04T01:33:22;4.57;;;3.63;;
55993;SDS011;67425;52.126;20.638;2023-06-04T01:35:48;5.60;;;4.07;;
55993;SDS011;67425;52.126;20.638;2023-06-04T01:38:14;9.70;;;4.60;;
55993;SDS011;67425;52.126;20.638;2023-06-04T01:40:40;4.68;;;3.90;;
55993;SDS011;67425;52.126;20.638;2023-06-04T01:43:06;7.85;;;4.05;;
55993;SDS011;67425;52.126;20.638;2023-06-04T01:45:32;10.60;;;4.20;;
55993;SDS011;67425;52.126;20.638;2023-06-04T01:47:57;5.00;;;4.00;;
55993;SDS011;67425;52.126;20.638;2023-06-04T01:50:23;11.30;;;4.80;;
55993;SDS011;67425;52.126;20.638;2023-06-04T01:52:48;13.35;;;4.93;;
55993;SDS011;67425;52.126;20.638;2023-06-04T01:55:15;9.15;;;4.20;;
55993;SDS011;67425;52.126;20.638;2023-06-04T01:57:41;11.10;;;4.10;;
55993;SDS011;67425;52.126;20.638;2023-06-04T02:00:12;10.60;;;3.53;;
55993;SDS011;67425;52.126;20.638;2023-06-04T02:02:39;5.80;;;3.58;;
55993;SDS011;67425;52.126;20.638;2023-06-04T02:05:06;7.93;;;3.83;;
55993;SDS011;67425;52.126;20.638;2023-06-04T02:07:36;5.97;;;3.92;;
55993;SDS011;67425;52.126;20.638;2023-06-04T02:10:07;5.18;;;3.67;;
55993;SDS011;67425;52.126;20.638;2023-06-04T02:12:35;7.05;;;3.97;;
55993;SDS011;67425;52.126;20.638;2023-06-04T02:15:01;8.10;;;3.67;;
55993;SDS011;67425;52.126;20.638;2023-06-04T02:17:27;9.63;;;4.30;;
55993;SDS011;67425;52.126;20.638;2023-06-04T02:19:53;7.90;;;4.03;;
55993;SDS011;67425;52.126;20.638;2023-06-04T02:22:19;7.97;;;3.83;;
55993;SDS011;67425;52.126;20.638;2023-06-04T02:24:45;8.52;;;3.70;;
55993;SDS011;67425;52.126;20.638;2023-06-04T02:27:12;11.63;;;4.28;;
55993;SDS011;67425;52.126;20.638;2023-06-04T02:29:39;7.07;;;3.95;;
55993;SDS011;67425;52.126;20.638;2023-06-04T02:32:05;5.80;;;3.80;;
55993;SDS011;67425;52.126;20.638;2023-06-04T02:34:30;10.32;;;4.05;;
55993;SDS011;67425;52.126;20.638;2023-06-04T02:36:56;7.03;;;3.80;;
55993;SDS011;67425;52.126;20.638;2023-06-04T02:39:22;10.80;;;4.38;;
55993;SDS011;67425;52.126;20.638;2023-06-04T02:41:47;5.35;;;3.60;;
55993;SDS011;67425;52.126;20.638;2023-06-04T02:44:12;5.28;;;3.58;;
55993;SDS011;67425;52.126;20.638;2023-06-04T02:46:38;8.32;;;3.60;;
55993;SDS011;67425;52.126;20.638;2023-06-04T02:49:04;9.18;;;3.53;;
55993;SDS011;67425;52.126;20.638;2023-06-04T02:51:30;18.10;;;4.45;;
55993;SDS011;67425;52.126;20.638;2023-06-04T02:53:56;5.10;;;3.83;;
55993;SDS011;67425;52.126;20.638;2023-06-04T02:56:21;7.85;;;4.00;;
55993;SDS011;67425;52.126;20.638;2023-06-04T02:58:50;8.73;;;4.20;;
55993;SDS011;67425;52.126;20.638;2023-06-04T03:01:20;7.95;;;4.25;;
55993;SDS011;67425;52.126;20.638;2023-06-04T03:03:47;5.50;;;4.00;;
55993;SDS011;67425;52.126;20.638;2023-06-04T03:06:13;13.18;;;4.53;;
55993;SDS011;67425;52.126;20.638;2023-06-04T03:08:41;10.90;;;4.07;;
55993;SDS011;67425;52.126;20.638;2023-06-04T03:11:07;6.35;;;3.70;;
55993;SDS011;67425;52.126;20.638;2023-06-04T03:13:33;8.38;;;5.07;;
55993;SDS011;67425;52.126;20.638;2023-06-04T03:15:58;6.95;;;3.58;;
55993;SDS011;67425;52.126;20.638;2023-06-04T03:18:26;5.18;;;3.50;;
55993;SDS011;67425;52.126;20.638;2023-06-04T03:20:53;3.90;;;3.38;;
55993;SDS011;67425;52.126;20.638;2023-06-04T03:23:19;5.30;;;3.90;;
55993;SDS011;67425;52.126;20.638;2023-06-04T03:25:44;6.93;;;3.38;;
55993;SDS011;67425;52.126;20.638;2023-06-04T03:28:10;7.75;;;3.78;;
55993;SDS011;67425;52.126;20.638;2023-06-04T03:30:35;9.05;;;3.80;;
55993;SDS011;67425;52.126;20.638;2023-06-04T03:33:00;11.93;;;3.67;;
55993;SDS011;67425;52.126;20.638;2023-06-04T03:35:26;5.35;;;3.88;;
55993;SDS011;67425;52.126;20.638;2023-06-04T03:37:51;3.42;;;3.13;;
55993;SDS011;67425;52.126;20.638;2023-06-04T03:40:16;8.35;;;4.40;;
55993;SDS011;67425;52.126;20.638;2023-06-04T03:42:42;6.72;;;3.30;;
55993;SDS011;67425;52.126;20.638;2023-06-04T03:45:07;10.32;;;3.65;;
55993;SDS011;67425;52.126;20.638;2023-06-04T03:47:33;18.50;;;3.97;;
55993;SDS011;67425;52.126;20.638;2023-06-04T03:49:58;6.55;;;3.55;;
55993;SDS011;67425;52.126;20.638;2023-06-04T03:52:24;6.72;;;4.18;;
55993;SDS011;67425;52.126;20.638;2023-06-04T03:54:49;7.10;;;3.42;;
55993;SDS011;67425;52.126;20.638;2023-06-04T03:57:14;8.88;;;3.25;;
55993;SDS011;67425;52.126;20.638;2023-06-04T03:59:39;5.03;;;3.55;;
55993;SDS011;67425;52.126;20.638;2023-06-04T04:02:05;8.60;;;3.38;;
55993;SDS011;67425;52.126;20.638;2023-06-04T04:04:30;5.32;;;3.35;;
55993;SDS011;67425;52.126;20.638;2023-06-04T04:06:58;8.65;;;3.35;;
55993;SDS011;67425;52.126;20.638;2023-06-04T04:09:24;4.80;;;3.47;;
55993;SDS011;67425;52.126;20.638;2023-06-04T04:11:50;11.25;;;3.63;;
55993;SDS011;67425;52.126;20.638;2023-06-04T04:14:15;5.78;;;2.95;;
55993;SDS011;67425;52.126;20.638;2023-06-04T04:16:40;5.13;;;3.30;;
55993;SDS011;67425;52.126;20.638;2023-06-04T04:19:06;7.15;;;3.17;;
55993;SDS011;67425;52.126;20.638;2023-06-04T04:21:33;9.50;;;3.40;;
55993;SDS011;67425;52.126;20.638;2023-06-04T04:24:01;11.88;;;3.10;;
55993;SDS011;67425;52.126;20.638;2023-06-04T04:26:27;11.40;;;3.33;;
55993;SDS011;67425;52.126;20.638;2023-06-04T04:28:53;2.97;;;2.30;;
55993;SDS011;67425;52.126;20.638;2023-06-04T04:31:23;4.38;;;2.13;;
55993;SDS011;67425;52.126;20.638;2023-06-04T04:33:49;4.25;;;2.15;;
55993;SDS011;67425;52.126;20.638;2023-06-04T04:36:16;4.63;;;2.15;;
55993;SDS011;67425;52.126;20.638;2023-06-04T04:38:43;8.73;;;2.47;;
55993;SDS011;67425;52.126;20.638;2023-06-04T04:41:10;2.90;;;2.10;;
55993;SDS011;67425;52.126;20.638;2023-06-04T04:43:36;2.50;;;1.75;;
55993;SDS011;67425;52.126;20.638;2023-06-04T04:46:04;5.43;;;2.30;;
55993;SDS011;67425;52.126;20.638;2023-06-04T04:48:29;4.18;;;2.00;;
55993;SDS011;67425;52.126;20.638;2023-06-04T04:50:55;2.97;;;2.33;;
55993;SDS011;67425;52.126;20.638;2023-06-04T04:53:20;4.60;;;1.50;;
55993;SDS011;67425;52.126;20.638;2023-06-04T04:55:46;4.10;;;1.40;;
55993;SDS011;67425;52.126;20.638;2023-06-04T04:58:12;4.53;;;1.70;;
55993;SDS011;67425;52.126;20.638;2023-06-04T05:00:38;1.73;;;1.38;;
55993;SDS011;67425;52.126;20.638;2023-06-04T05:03:03;2.10;;;1.63;;
55993;SDS011;67425;52.126;20.638;2023-06-04T05:05:28;3.60;;;1.55;;
55993;SDS011;67425;52.126;20.638;2023-06-04T05:07:54;4.95;;;1.42;;
55993;SDS011;67425;52.126;20.638;2023-06-04T05:10:19;3.60;;;1.55;;
55993;SDS011;67425;52.126;20.638;2023-06-04T05:12:51;3.58;;;1.80;;
55993;SDS011;67425;52.126;20.638;2023-06-04T05:15:20;4.10;;;1.80;;
55993;SDS011;67425;52.126;20.638;2023-06-04T05:17:46;6.10;;;1.75;;
55993;SDS011;67425;52.126;20.638;2023-06-04T05:20:12;2.80;;;1.50;;
55993;SDS011;67425;52.126;20.638;2023-06-04T05:22:38;2.78;;;2.15;;
55993;SDS011;67425;52.126;20.638;2023-06-04T05:25:04;2.58;;;1.20;;
55993;SDS011;67425;52.126;20.638;2023-06-04T05:27:31;1.42;;;1.15;;
55993;SDS011;67425;52.126;20.638;2023-06-04T05:29:57;1.58;;;1.35;;
55993;SDS011;67425;52.126;20.638;2023-06-04T05:32:23;6.38;;;1.13;;
55993;SDS011;67425;52.126;20.638;2023-06-04T05:34:48;1.90;;;1.30;;
55993;SDS011;67425;52.126;20.638;2023-06-04T05:37:14;1.38;;;1.20;;
55993;SDS011;67425;52.126;20.638;2023-06-04T05:39:41;4.25;;;0.90;;
55993;SDS011;67425;52.126;20.638;2023-06-04T05:42:07;2.13;;;1.15;;
55993;SDS011;67425;52.126;20.638;2023-06-04T05:44:33;1.40;;;1.00;;
55993;SDS011;67425;52.126;20.638;2023-06-04T05:46:58;5.15;;;1.00;;
55993;SDS011;67425;52.126;20.638;2023-06-04T05:49:24;5.40;;;1.35;;
55993;SDS011;67425;52.126;20.638;2023-06-04T05:51:50;0.95;;;0.85;;
55993;SDS011;67425;52.126;20.638;2023-06-04T05:54:15;3.85;;;1.02;;
55993;SDS011;67425;52.126;20.638;2023-06-04T05:56:41;1.00;;;0.70;;
55993;SDS011;67425;52.126;20.638;2023-06-04T05:59:06;1.40;;;0.95;;
55993;SDS011;67425;52.126;20.638;2023-06-04T06:01:31;6.63;;;0.95;;
55993;SDS011;67425;52.126;20.638;2023-06-04T06:03:57;7.20;;;1.05;;
55993;SDS011;67425;52.126;20.638;2023-06-04T06:06:22;1.85;;;1.10;;
55993;SDS011;67425;52.126;20.638;2023-06-04T06:08:48;1.15;;;0.90;;
55993;SDS011;67425;52.126;20.638;2023-06-04T06:11:14;1.25;;;0.65;;
55993;SDS011;67425;52.126;20.638;2023-06-04T06:13:40;1.50;;;0.95;;
55993;SDS011;67425;52.126;20.638;2023-06-04T06:16:05;1.45;;;1.00;;
55993;SDS011;67425;52.126;20.638;2023-06-04T06:18:31;3.70;;;0.90;;
55993;SDS011;67425;52.126;20.638;2023-06-04T06:20:57;2.88;;;0.90;;
55993;SDS011;67425;52.126;20.638;2023-06-04T06:23:23;1.00;;;0.70;;
55993;SDS011;67425;52.126;20.638;2023-06-04T06:25:49;8.38;;;0.70;;
55993;SDS011;67425;52.126;20.638;2023-06-04T06:28:17;0.80;;;0.60;;
55993;SDS011;67425;52.126;20.638;2023-06-04T06:30:42;8.40;;;1.00;;
55993;SDS011;67425;52.126;20.638;2023-06-04T06:33:09;1.20;;;0.60;;
55993;SDS011;67425;52.126;20.638;2023-06-04T06:35:34;2.05;;;0.63;;
55993;SDS011;67425;52.126;20.638;2023-06-04T06:38:00;4.28;;;0.95;;
55993;SDS011;67425;52.126;20.638;2023-06-04T06:40:25;4.05;;;0.80;;
55993;SDS011;67425;52.126;20.638;2023-06-04T06:42:50;1.45;;;0.60;;
55993;SDS011;67425;52.126;20.638;2023-06-04T06:45:17;2.65;;;0.50;;
55993;SDS011;67425;52.126;20.638;2023-06-04T06:47:43;3.17;;;0.60;;
55993;SDS011;67425;52.126;20.638;2023-06-04T06:50:09;0.50;;;0.50;;
55993;SDS011;67425;52.126;20.638;2023-06-04T06:52:35;1.35;;;0.82;;
55993;SDS011;67425;52.126;20.638;2023-06-04T06:55:01;0.68;;;0.68;;
55993;SDS011;67425;52.126;20.638;2023-06-04T06:57:28;2.75;;;0.77;;
55993;SDS011;67425;52.126;20.638;2023-06-04T06:59:53;1.58;;;0.50;;
55993;SDS011;67425;52.126;20.638;2023-06-04T07:02:19;1.00;;;0.50;;
55993;SDS011;67425;52.126;20.638;2023-06-04T07:04:44;5.93;;;0.52;;
55993;SDS011;67425;52.126;20.638;2023-06-04T07:07:10;0.30;;;0.30;;
55993;SDS011;67425;52.126;20.638;2023-06-04T07:09:35;0.77;;;0.50;;
55993;SDS011;67425;52.126;20.638;2023-06-04T07:12:01;1.38;;;0.43;;
55993;SDS011;67425;52.126;20.638;2023-06-04T07:14:26;1.15;;;0.70;;
55993;SDS011;67425;52.126;20.638;2023-06-04T07:16:51;1.00;;;0.60;;
55993;SDS011;67425;52.126;20.638;2023-06-04T07:19:16;1.25;;;0.45;;
55993;SDS011;67425;52.126;20.638;2023-06-04T07:21:42;2.42;;;0.93;;
55993;SDS011;67425;52.126;20.638;2023-06-04T07:24:08;2.35;;;0.85;;
55993;SDS011;67425;52.126;20.638;2023-06-04T07:26:33;1.00;;;0.52;;
55993;SDS011;67425;52.126;20.638;2023-06-04T07:28:58;1.20;;;0.57;;
55993;SDS011;67425;52.126;20.638;2023-06-04T07:31:24;0.93;;;0.52;;
55993;SDS011;67425;52.126;20.638;2023-06-04T07:33:49;0.50;;;0.50;;
55993;SDS011;67425;52.126;20.638;2023-06-04T07:36:15;1.33;;;0.60;;
55993;SDS011;67425;52.126;20.638;2023-06-04T07:38:41;0.93;;;0.52;;
55993;SDS011;67425;52.126;20.638;2023-06-04T07:41:07;0.70;;;0.70;;
55993;SDS011;67425;52.126;20.638;2023-06-04T07:43:34;0.65;;;0.50;;
55993;SDS011;67425;52.126;20.638;2023-06-04T07:46:00;1.63;;;0.60;;
55993;SDS011;67425;52.126;20.638;2023-06-04T07:48:27;0.80;;;0.70;;
55993;SDS011;67425;52.126;20.638;2023-06-04T07:50:56;1.35;;;0.65;;
55993;SDS011;67425;52.126;20.638;2023-06-04T07:53:22;3.25;;;0.95;;
55993;SDS011;67425;52.126;20.638;2023-06-04T07:55:48;5.28;;;1.08;;
55993;SDS011;67425;52.126;20.638;2023-06-04T07:58:13;1.73;;;0.85;;
55993;SDS011;67425;52.126;20.638;2023-06-04T08:00:39;0.50;;;0.50;;
55993;SDS011;67425;52.126;20.638;2023-06-04T08:03:04;0.60;;;0.60;;
55993;SDS011;67425;52.126;20.638;2023-06-04T08:05:29;3.67;;;0.80;;
55993;SDS011;67425;52.126;20.638;2023-06-04T08:07:55;4.07;;;0.73;;
55993;SDS011;67425;52.126;20.638;2023-06-04T08:10:20;5.55;;;0.57;;
55993;SDS011;67425;52.126;20.638;2023-06-04T08:12:46;1.42;;;1.33;;
55993;SDS011;67425;52.126;20.638;2023-06-04T08:15:11;0.85;;;0.52;;
55993;SDS011;67425;52.126;20.638;2023-06-04T08:17:37;0.95;;;0.60;;
55993;SDS011;67425;52.126;20.638;2023-06-04T08:20:02;0.73;;;0.70;;
55993;SDS011;67425;52.126;20.638;2023-06-04T08:22:31;3.08;;;0.88;;
55993;SDS011;67425;52.126;20.638;2023-06-04T08:24:56;3.83;;;0.50;;
55993;SDS011;67425;52.126;20.638;2023-06-04T08:27:22;0.60;;;0.60;;
55993;SDS011;67425;52.126;20.638;2023-06-04T08:29:47;6.38;;;0.68;;
55993;SDS011;67425;52.126;20.638;2023-06-04T08:32:13;1.48;;;0.57;;
55993;SDS011;67425;52.126;20.638;2023-06-04T08:34:38;2.30;;;0.50;;
55993;SDS011;67425;52.126;20.638;2023-06-04T08:37:04;0.60;;;0.50;;
55993;SDS011;67425;52.126;20.638;2023-06-04T08:39:29;8.80;;;1.13;;
55993;SDS011;67425;52.126;20.638;2023-06-04T08:41:56;5.18;;;0.60;;
55993;SDS011;67425;52.126;20.638;2023-06-04T08:44:29;2.20;;;0.63;;
55993;SDS011;67425;52.126;20.638;2023-06-04T08:46:57;1.40;;;0.60;;
55993;SDS011;67425;52.126;20.638;2023-06-04T08:49:28;3.93;;;1.17;;
55993;SDS011;67425;52.126;20.638;2023-06-04T08:51:59;10.88;;;1.02;;
55993;SDS011;67425;52.126;20.638;2023-06-04T08:54:24;1.45;;;0.60;;
55993;SDS011;67425;52.126;20.638;2023-06-04T08:56:51;1.48;;;0.57;;
55993;SDS011;67425;52.126;20.638;2023-06-04T08:59:17;1.70;;;0.70;;
55993;SDS011;67425;52.126;20.638;2023-06-04T09:01:43;1.80;;;0.90;;
55993;SDS011;67425;52.126;20.638;2023-06-04T09:04:10;2.75;;;0.82;;
55993;SDS011;67425;52.126;20.638;2023-06-04T09:06:36;0.80;;;0.77;;
55993;SDS011;67425;52.126;20.638;2023-06-04T09:09:03;1.98;;;0.98;;
55993;SDS011;67425;52.126;20.638;2023-06-04T09:11:33;1.67;;;0.70;;
55993;SDS011;67425;52.126;20.638;2023-06-04T09:14:07;0.67;;;0.67;;
55993;SDS011;67425;52.126;20.638;2023-06-04T09:16:54;2.55;;;0.55;;
55993;SDS011;67425;52.126;20.638;2023-06-04T09:19:20;0.80;;;0.80;;
55993;SDS011;67425;52.126;20.638;2023-06-04T09:24:20;0.50;;;0.50;;
55993;SDS011;67425;52.126;20.638;2023-06-04T09:26:46;0.73;;;0.73;;
55993;SDS011;67425;52.126;20.638;2023-06-04T09:29:11;1.35;;;0.77;;
55993;SDS011;67425;52.126;20.638;2023-06-04T09:31:37;2.28;;;0.60;;
55993;SDS011;67425;52.126;20.638;2023-06-04T09:34:04;2.40;;;0.60;;
55993;SDS011;67425;52.126;20.638;2023-06-04T09:36:30;1.85;;;0.88;;
55993;SDS011;67425;52.126;20.638;2023-06-04T09:38:56;2.92;;;0.80;;
55993;SDS011;67425;52.126;20.638;2023-06-04T09:41:21;1.33;;;0.88;;
55993;SDS011;67425;52.126;20.638;2023-06-04T09:43:47;8.60;;;2.42;;
55993;SDS011;67425;52.126;20.638;2023-06-04T09:46:13;0.50;;;0.50;;
55993;SDS011;67425;52.126;20.638;2023-06-04T09:48:40;1.65;;;0.60;;
55993;SDS011;67425;52.126;20.638;2023-06-04T09:51:10;1.10;;;0.70;;
55993;SDS011;67425;52.126;20.638;2023-06-04T09:53:37;8.00;;;0.77;;
55993;SDS011;67425;52.126;20.638;2023-06-04T09:56:04;1.40;;;0.90;;
55993;SDS011;67425;52.126;20.638;2023-06-04T09:58:31;0.77;;;0.68;;
55993;SDS011;67425;52.126;20.638;2023-06-04T10:00:58;4.53;;;0.60;;
55993;SDS011;67425;52.126;20.638;2023-06-04T10:03:25;1.92;;;0.80;;
55993;SDS011;67425;52.126;20.638;2023-06-04T10:05:56;0.70;;;0.60;;
55993;SDS011;67425;52.126;20.638;2023-06-04T10:08:23;4.28;;;0.68;;
55993;SDS011;67425;52.126;20.638;2023-06-04T10:10:50;3.42;;;0.63;;
55993;SDS011;67425;52.126;20.638;2023-06-04T10:13:19;0.77;;;0.75;;
55993;SDS011;67425;52.126;20.638;2023-06-04T10:15:46;1.95;;;0.50;;
55993;SDS011;67425;52.126;20.638;2023-06-04T10:18:12;0.70;;;0.70;;
55993;SDS011;67425;52.126;20.638;2023-06-04T10:20:40;1.50;;;0.70;;
55993;SDS011;67425;52.126;20.638;2023-06-04T10:23:06;1.80;;;0.65;;
55993;SDS011;67425;52.126;20.638;2023-06-04T10:25:34;1.10;;;0.60;;
55993;SDS011;67425;52.126;20.638;2023-06-04T10:28:01;0.55;;;0.55;;
55993;SDS011;67425;52.126;20.638;2023-06-04T10:30:26;5.63;;;0.75;;
55993;SDS011;67425;52.126;20.638;2023-06-04T10:32:52;0.50;;;0.50;;
55993;SDS011;67425;52.126;20.638;2023-06-04T10:35:28;1.42;;;0.60;;
55993;SDS011;67425;52.126;20.638;2023-06-04T10:38:04;0.85;;;0.80;;
55993;SDS011;67425;52.126;20.638;2023-06-04T10:40:36;0.88;;;0.55;;
55993;SDS011;67425;52.126;20.638;2023-06-04T10:43:06;0.93;;;0.80;;
55993;SDS011;67425;52.126;20.638;2023-06-04T10:45:32;0.85;;;0.50;;
55993;SDS011;67425;52.126;20.638;2023-06-04T10:48:01;1.55;;;0.70;;
55993;SDS011;67425;52.126;20.638;2023-06-04T10:50:27;2.25;;;0.60;;
55993;SDS011;67425;52.126;20.638;2023-06-04T10:52:53;5.47;;;2.20;;
55993;SDS011;67425;52.126;20.638;2023-06-04T10:55:20;1.27;;;0.88;;
55993;SDS011;67425;52.126;20.638;2023-06-04T11:00:18;1.65;;;0.73;;
55993;SDS011;67425;52.126;20.638;2023-06-04T11:02:56;14.40;;;0.88;;
55993;SDS011;67425;52.126;20.638;2023-06-04T11:05:21;0.73;;;0.40;;
55993;SDS011;67425;52.126;20.638;2023-06-04T11:07:48;3.05;;;0.52;;
55993;SDS011;67425;52.126;20.638;2023-06-04T11:10:15;0.57;;;0.57;;
55993;SDS011;67425;52.126;20.638;2023-06-04T11:12:45;1.95;;;1.15;;
55993;SDS011;67425;52.126;20.638;2023-06-04T11:15:17;1.60;;;0.60;;
55993;SDS011;67425;52.126;20.638;2023-06-04T11:17:50;4.60;;;0.50;;
55993;SDS011;67425;52.126;20.638;2023-06-04T11:20:19;1.05;;;0.63;;
55993;SDS011;67425;52.126;20.638;2023-06-04T11:22:55;3.33;;;0.45;;
55993;SDS011;67425;52.126;20.638;2023-06-04T11:25:23;3.35;;;0.85;;
55993;SDS011;67425;52.126;20.638;2023-06-04T11:27:51;1.00;;;0.80;;
55993;SDS011;67425;52.126;20.638;2023-06-04T11:30:17;1.20;;;0.50;;
55993;SDS011;67425;52.126;20.638;2023-06-04T11:32:43;2.13;;;0.82;;
55993;SDS011;67425;52.126;20.638;2023-06-04T11:35:08;6.47;;;0.68;;
55993;SDS011;67425;52.126;20.638;2023-06-04T11:37:36;0.70;;;0.40;;
55993;SDS011;67425;52.126;20.638;2023-06-04T11:40:02;1.13;;;0.70;;
55993;SDS011;67425;52.126;20.638;2023-06-04T11:42:30;0.63;;;0.40;;
55993;SDS011;67425;52.126;20.638;2023-06-04T11:44:56;3.42;;;0.43;;
55993;SDS011;67425;52.126;20.638;2023-06-04T11:47:22;0.98;;;0.50;;
55993;SDS011;67425;52.126;20.638;2023-06-04T11:49:53;2.08;;;0.50;;
55993;SDS011;67425;52.126;20.638;2023-06-04T11:52:20;1.20;;;0.65;;
55993;SDS011;67425;52.126;20.638;2023-06-04T11:54:46;5.45;;;0.50;;
55993;SDS011;67425;52.126;20.638;2023-06-04T11:57:11;0.60;;;0.60;;
55993;SDS011;67425;52.126;20.638;2023-06-04T11:59:37;1.05;;;0.32;;
55993;SDS011;67425;52.126;20.638;2023-06-04T12:02:02;4.40;;;0.65;;
55993;SDS011;67425;52.126;20.638;2023-06-04T12:04:29;6.65;;;1.20;;
55993;SDS011;67425;52.126;20.638;2023-06-04T12:06:57;2.65;;;1.30;;
55993;SDS011;67425;52.126;20.638;2023-06-04T12:09:25;1.15;;;1.05;;
55993;SDS011;67425;52.126;20.638;2023-06-04T12:11:58;0.60;;;0.60;;
55993;SDS011;67425;52.126;20.638;2023-06-04T12:14:25;0.93;;;0.80;;
55993;SDS011;67425;52.126;20.638;2023-06-04T12:16:57;5.93;;;1.00;;
55993;SDS011;67425;52.126;20.638;2023-06-04T12:19:23;2.80;;;1.42;;
55993;SDS011;67425;52.126;20.638;2023-06-04T12:22:01;7.90;;;0.73;;
55993;SDS011;67425;52.126;20.638;2023-06-04T12:24:31;3.90;;;1.00;;
55993;SDS011;67425;52.126;20.638;2023-06-04T12:27:04;5.10;;;1.90;;
55993;SDS011;67425;52.126;20.638;2023-06-04T12:29:31;3.78;;;0.50;;
55993;SDS011;67425;52.126;20.638;2023-06-04T12:34:39;3.63;;;0.40;;
55993;SDS011;67425;52.126;20.638;2023-06-04T12:37:05;0.90;;;0.32;;
55993;SDS011;67425;52.126;20.638;2023-06-04T12:39:34;2.13;;;1.67;;
55993;SDS011;67425;52.126;20.638;2023-06-04T12:42:02;6.45;;;1.00;;
55993;SDS011;67425;52.126;20.638;2023-06-04T12:44:30;0.60;;;0.60;;
55993;SDS011;67425;52.126;20.638;2023-06-04T12:46:56;3.17;;;0.50;;
55993;SDS011;67425;52.126;20.638;2023-06-04T12:49:21;1.13;;;0.43;;
55993;SDS011;67425;52.126;20.638;2023-06-04T12:51:46;1.23;;;0.80;;
55993;SDS011;67425;52.126;20.638;2023-06-04T12:54:12;0.73;;;0.43;;
55993;SDS011;67425;52.126;20.638;2023-06-04T12:56:38;2.10;;;0.65;;
55993;SDS011;67425;52.126;20.638;2023-06-04T12:59:06;7.32;;;0.55;;
55993;SDS011;67425;52.126;20.638;2023-06-04T13:01:31;1.63;;;0.80;;
55993;SDS011;67425;52.126;20.638;2023-06-04T13:03:56;1.20;;;0.55;;
55993;SDS011;67425;52.126;20.638;2023-06-04T13:06:22;2.30;;;0.52;;
55993;SDS011;67425;52.126;20.638;2023-06-04T13:08:47;0.55;;;0.55;;
55993;SDS011;67425;52.126;20.638;2023-06-04T13:11:13;2.35;;;0.85;;
55993;SDS011;67425;52.126;20.638;2023-06-04T13:13:38;1.35;;;0.60;;
55993;SDS011;67425;52.126;20.638;2023-06-04T13:16:03;0.90;;;0.70;;
55993;SDS011;67425;52.126;20.638;2023-06-04T13:18:29;1.00;;;0.88;;
55993;SDS011;67425;52.126;20.638;2023-06-04T13:20:54;0.93;;;0.70;;
55993;SDS011;67425;52.126;20.638;2023-06-04T13:23:20;1.10;;;0.60;;
55993;SDS011;67425;52.126;20.638;2023-06-04T13:25:45;4.75;;;0.70;;
55993;SDS011;67425;52.126;20.638;2023-06-04T13:28:11;0.43;;;0.43;;
55993;SDS011;67425;52.126;20.638;2023-06-04T13:30:36;0.90;;;0.77;;
55993;SDS011;67425;52.126;20.638;2023-06-04T13:33:02;2.53;;;0.80;;
55993;SDS011;67425;52.126;20.638;2023-06-04T13:35:28;1.02;;;0.50;;
55993;SDS011;67425;52.126;20.638;2023-06-04T13:37:54;2.53;;;0.77;;
55993;SDS011;67425;52.126;20.638;2023-06-04T13:40:19;1.20;;;0.52;;
55993;SDS011;67425;52.126;20.638;2023-06-04T13:42:45;1.02;;;0.60;;
55993;SDS011;67425;52.126;20.638;2023-06-04T13:45:11;0.60;;;0.60;;
55993;SDS011;67425;52.126;20.638;2023-06-04T13:47:36;2.92;;;0.50;;
55993;SDS011;67425;52.126;20.638;2023-06-04T13:50:02;0.73;;;0.60;;
55993;SDS011;67425;52.126;20.638;2023-06-04T13:52:28;0.60;;;0.60;;
55993;SDS011;67425;52.126;20.638;2023-06-04T13:54:54;1.33;;;0.60;;
55993;SDS011;67425;52.126;20.638;2023-06-04T13:57:19;2.40;;;0.75;;
55993;SDS011;67425;52.126;20.638;2023-06-04T13:59:45;1.85;;;0.70;;
55993;SDS011;67425;52.126;20.638;2023-06-04T14:02:10;0.60;;;0.40;;
55993;SDS011;67425;52.126;20.638;2023-06-04T14:04:36;1.20;;;0.52;;
55993;SDS011;67425;52.126;20.638;2023-06-04T14:07:01;1.15;;;0.57;;
55993;SDS011;67425;52.126;20.638;2023-06-04T14:09:26;17.25;;;11.30;;
55993;SDS011;67425;52.126;20.638;2023-06-04T14:11:52;1.75;;;0.77;;
55993;SDS011;67425;52.126;20.638;2023-06-04T14:14:17;3.00;;;0.70;;
55993;SDS011;67425;52.126;20.638;2023-06-04T14:16:44;0.73;;;0.47;;
55993;SDS011;67425;52.126;20.638;2023-06-04T14:19:09;3.53;;;0.70;;
55993;SDS011;67425;52.126;20.638;2023-06-04T14:21:35;0.95;;;0.75;;
55993;SDS011;67425;52.126;20.638;2023-06-04T14:24:01;3.10;;;1.13;;
55993;SDS011;67425;52.126;20.638;2023-06-04T14:26:26;1.33;;;1.13;;
55993;SDS011;67425;52.126;20.638;2023-06-04T14:28:51;3.95;;;1.48;;
55993;SDS011;67425;52.126;20.638;2023-06-04T14:31:17;1.33;;;0.60;;
55993;SDS011;67425;52.126;20.638;2023-06-04T14:33:42;0.82;;;0.82;;
55993;SDS011;67425;52.126;20.638;2023-06-04T14:36:07;12.52;;;1.35;;
55993;SDS011;67425;52.126;20.638;2023-06-04T14:38:33;2.95;;;0.60;;
55993;SDS011;67425;52.126;20.638;2023-06-04T14:40:59;0.40;;;0.40;;